createdAt,value
2017-11-12T00:01:30.008Z,90.80
2017-11-12T00:03:56.255Z,90.80
2017-11-12T00:06:23.235Z,90.80
2017-11-12T00:08:49.464Z,90.80
2017-11-12T00:11:15.734Z,90.90
2017-11-12T00:13:41.934Z,91.00
2017-11-12T00:16:08.420Z,91.10
2017-11-12T00:18:34.675Z,91.20
2017-11-12T00:21:00.891Z,91.10
2017-11-12T00:23:27.132Z,91.20
2017-11-12T00:25:53.344Z,91.20
2017-11-12T00:28:19.596Z,91.20
2017-11-12T00:30:45.828Z,91.20
2017-11-12T00:33:12.217Z,91.20
2017-11-12T00:35:38.467Z,91.20
2017-11-12T00:38:04.717Z,91.20
2017-11-12T00:40:30.993Z,91.20
2017-11-12T00:42:58.018Z,91.30
2017-11-12T00:45:24.264Z,91.30
2017-11-12T00:47:51.248Z,91.30
2017-11-12T00:50:17.518Z,91.30
2017-11-12T00:52:43.759Z,91.20
2017-11-12T00:55:10.043Z,91.20
2017-11-12T00:57:36.272Z,91.20
2017-11-12T01:00:03.298Z,91.40
2017-11-12T01:02:29.567Z,91.30
2017-11-12T01:04:55.787Z,91.30
2017-11-12T01:07:22.037Z,91.30
2017-11-12T01:09:49.068Z,91.20
2017-11-12T01:12:15.297Z,91.20
2017-11-12T01:14:41.507Z,91.10
2017-11-12T01:17:07.743Z,91.00
2017-11-12T01:19:33.962Z,91.10
2017-11-12T01:22:00.148Z,91.10
2017-11-12T01:24:27.110Z,91.10
2017-11-12T01:26:53.322Z,91.00
2017-11-12T01:29:19.566Z,91.00
2017-11-12T01:31:45.842Z,91.00
2017-11-12T01:34:12.099Z,91.00
2017-11-12T01:36:39.118Z,90.90
2017-11-12T01:39:06.117Z,90.80
2017-11-12T01:41:32.375Z,90.80
2017-11-12T01:43:58.646Z,90.70
2017-11-12T01:46:25.629Z,90.70
2017-11-12T01:48:51.943Z,90.70
2017-11-12T01:51:18.187Z,90.70
2017-11-12T01:53:44.536Z,90.80
2017-11-12T01:56:11.584Z,90.90
2017-11-12T01:58:37.867Z,90.80
2017-11-12T02:01:04.141Z,90.90
2017-11-12T02:03:31.274Z,90.90
2017-11-12T02:05:57.566Z,90.90
2017-11-12T02:08:23.867Z,90.90
2017-11-12T02:10:50.172Z,91.00
2017-11-12T02:13:16.432Z,90.90
2017-11-12T02:15:42.639Z,91.00
2017-11-12T02:18:08.928Z,91.10
2017-11-12T02:20:35.174Z,91.10
2017-11-12T02:23:01.464Z,91.10
2017-11-12T02:25:28.557Z,91.20
2017-11-12T02:27:54.853Z,91.20
2017-11-12T02:30:21.108Z,91.30
2017-11-12T02:32:47.457Z,91.30
2017-11-12T02:35:13.741Z,91.20
2017-11-12T02:37:39.972Z,91.40
2017-11-12T02:40:06.331Z,91.30
2017-11-12T02:42:32.681Z,91.40
2017-11-12T02:44:59.104Z,91.40
2017-11-12T02:47:26.156Z,91.50
2017-11-12T02:49:52.500Z,91.50
2017-11-12T02:52:18.809Z,91.50
2017-11-12T02:54:45.069Z,91.60
2017-11-12T02:57:12.113Z,91.40
2017-11-12T02:59:38.389Z,91.60
2017-11-12T03:02:04.633Z,91.70
2017-11-12T03:04:30.916Z,91.70
2017-11-12T03:07:05.038Z,91.80
2017-11-12T03:09:32.059Z,91.80
2017-11-12T03:11:59.843Z,91.80
2017-11-12T03:14:27.860Z,91.80
2017-11-12T03:16:54.503Z,91.80
2017-11-12T03:19:21.027Z,91.70
2017-11-12T03:21:49.854Z,91.90
2017-11-12T03:24:18.566Z,91.80
2017-11-12T03:26:45.088Z,91.90
2017-11-12T03:29:12.558Z,91.90
2017-11-12T03:31:38.860Z,91.90
2017-11-12T03:34:05.878Z,91.90
2017-11-12T03:36:33.289Z,91.90
2017-11-12T03:39:01.198Z,91.90
2017-11-12T03:41:28.579Z,91.90
2017-11-12T03:43:55.115Z,91.90
2017-11-12T03:46:21.357Z,91.90
2017-11-12T03:48:50.262Z,92.00
2017-11-12T03:51:17.380Z,92.00
2017-11-12T03:53:43.931Z,92.10
2017-11-12T03:56:11.054Z,92.20
2017-11-12T03:58:37.344Z,92.20
2017-11-12T04:01:03.588Z,92.30
2017-11-12T04:03:29.791Z,92.30
2017-11-12T04:05:56.794Z,92.10
2017-11-12T04:08:23.050Z,92.10
2017-11-12T04:10:50.049Z,92.00
2017-11-12T04:13:16.327Z,92.00
2017-11-12T04:15:43.327Z,92.00
2017-11-12T04:18:09.584Z,91.90
2017-11-12T04:20:36.019Z,92.00
2017-11-12T04:23:02.381Z,91.90
2017-11-12T04:25:29.347Z,92.00
2017-11-12T04:27:55.624Z,92.00
2017-11-12T04:30:21.902Z,91.90
2017-11-12T04:32:48.154Z,91.90
2017-11-12T04:35:14.374Z,91.90
2017-11-12T04:37:40.595Z,91.90
2017-11-12T04:40:06.954Z,92.00
2017-11-12T04:42:33.151Z,92.00
2017-11-12T04:44:59.358Z,92.10
2017-11-12T04:47:25.567Z,91.90
2017-11-12T04:49:52.529Z,92.00
2017-11-12T04:52:18.763Z,92.00
2017-11-12T04:54:45.003Z,92.10
2017-11-12T04:57:11.223Z,92.00
2017-11-12T04:59:37.436Z,92.00
2017-11-12T05:02:03.700Z,91.90
2017-11-12T05:04:29.923Z,91.90
2017-11-12T05:06:56.188Z,91.90
2017-11-12T05:09:22.445Z,91.80
2017-11-12T05:11:48.687Z,91.80
2017-11-12T05:14:14.889Z,91.80
2017-11-12T05:16:41.858Z,91.90
2017-11-12T05:19:08.063Z,91.90
2017-11-12T05:21:35.052Z,91.70
2017-11-12T05:24:02.096Z,91.80
2017-11-12T05:26:28.407Z,91.80
2017-11-12T05:28:54.623Z,91.80
2017-11-12T05:31:20.880Z,91.80
2017-11-12T05:33:47.087Z,91.80
2017-11-12T05:36:13.336Z,91.90
2017-11-12T05:38:39.552Z,91.90
2017-11-12T05:41:05.784Z,91.90
2017-11-12T05:43:31.984Z,91.80
2017-11-12T05:45:58.994Z,91.80
2017-11-12T05:48:25.226Z,91.80
2017-11-12T05:50:51.456Z,91.80
2017-11-12T05:53:18.425Z,91.80
2017-11-12T05:55:45.432Z,91.80
2017-11-12T05:58:11.681Z,91.80
2017-11-12T06:00:38.710Z,91.70
2017-11-12T06:03:04.967Z,91.70
2017-11-12T06:05:31.925Z,91.80
2017-11-12T06:07:58.295Z,91.80
2017-11-12T06:10:24.575Z,91.90
2017-11-12T06:12:51.551Z,91.90
2017-11-12T06:15:17.820Z,91.90
2017-11-12T06:17:45.480Z,91.90
2017-11-12T06:20:12.730Z,91.90
2017-11-12T06:22:39.709Z,92.00
2017-11-12T06:25:05.960Z,92.00
2017-11-12T06:27:32.237Z,92.00
2017-11-12T06:29:58.559Z,92.00
2017-11-12T06:32:25.909Z,92.10
2017-11-12T06:34:52.147Z,92.00
2017-11-12T06:37:18.452Z,92.20
2017-11-12T06:39:44.701Z,92.00
2017-11-12T06:42:10.955Z,92.00
2017-11-12T06:44:37.895Z,92.00
2017-11-12T06:47:04.129Z,92.00
2017-11-12T06:49:31.149Z,92.10
2017-11-12T06:51:57.412Z,92.10
2017-11-12T06:54:24.365Z,92.00
2017-11-12T06:56:51.349Z,92.00
2017-11-12T06:59:17.807Z,92.00
2017-11-12T07:01:44.649Z,92.00
2017-11-12T07:04:10.884Z,91.90
2017-11-12T07:06:37.124Z,91.90
2017-11-12T07:09:04.107Z,91.90
2017-11-12T07:11:33.194Z,91.80
2017-11-12T07:14:00.347Z,91.80
2017-11-12T07:16:26.572Z,91.80
2017-11-12T07:18:52.928Z,91.80
2017-11-12T07:21:20.610Z,91.70
2017-11-12T07:23:47.541Z,91.80
2017-11-12T07:26:13.757Z,91.70
2017-11-12T07:28:40.526Z,91.70
2017-11-12T07:31:07.845Z,91.60
2017-11-12T07:33:34.680Z,91.50
2017-11-12T07:36:00.890Z,91.50
2017-11-12T07:38:27.134Z,91.50
2017-11-12T07:40:54.146Z,91.50
2017-11-12T07:43:21.804Z,91.40
2017-11-12T07:45:48.250Z,91.20
2017-11-12T07:48:14.539Z,91.20
2017-11-12T07:50:42.348Z,91.10
2017-11-12T07:53:09.421Z,91.10
2017-11-12T07:55:35.641Z,91.40
2017-11-12T07:58:01.870Z,91.10
2017-11-12T08:00:28.193Z,91.00
2017-11-12T08:02:54.483Z,90.90
2017-11-12T08:05:20.867Z,90.80
2017-11-12T08:07:47.079Z,90.80
2017-11-12T08:10:13.400Z,90.70
2017-11-12T08:12:39.683Z,90.60
2017-11-12T08:15:06.029Z,90.90
2017-11-12T08:17:33.017Z,90.50
2017-11-12T08:19:59.530Z,90.50
2017-11-12T08:22:26.793Z,90.40
2017-11-12T08:24:53.040Z,90.40
2017-11-12T08:27:19.261Z,90.30
2017-11-12T08:29:45.671Z,90.30
2017-11-12T08:32:11.958Z,90.30
2017-11-12T08:34:38.368Z,90.20
2017-11-12T08:37:04.625Z,90.10
2017-11-12T08:39:32.487Z,90.30
2017-11-12T08:41:58.772Z,90.00
2017-11-12T08:44:25.037Z,90.00
2017-11-12T08:46:51.332Z,89.90
2017-11-12T08:49:17.757Z,89.70
2017-11-12T08:51:44.092Z,89.70
2017-11-12T08:54:10.429Z,89.70
2017-11-12T08:56:36.711Z,89.60
2017-11-12T08:59:02.946Z,89.40
2017-11-12T09:01:29.280Z,89.20
2017-11-12T09:03:55.616Z,89.00
2017-11-12T09:06:22.591Z,88.80
2017-11-12T09:08:48.877Z,88.70
2017-11-12T09:11:15.151Z,88.40
2017-11-12T09:13:41.458Z,88.50
2017-11-12T09:16:07.736Z,88.40
2017-11-12T09:18:33.955Z,88.40
2017-11-12T09:21:00.279Z,87.80
2017-11-12T09:23:26.553Z,87.60
2017-11-12T09:25:52.942Z,87.20
2017-11-12T09:28:19.475Z,87.40
2017-11-12T09:30:45.756Z,87.60
2017-11-12T09:33:12.760Z,87.90
2017-11-12T09:35:39.566Z,87.90
2017-11-12T09:38:05.907Z,87.70
2017-11-12T09:40:32.231Z,87.80
2017-11-12T09:42:58.497Z,87.70
2017-11-12T09:45:24.791Z,87.00
2017-11-12T09:47:51.040Z,87.30
2017-11-12T09:50:17.267Z,87.30
2017-11-12T09:52:45.904Z,86.80
2017-11-12T09:55:13.012Z,86.90
2017-11-12T09:57:40.010Z,87.20
2017-11-12T10:00:07.065Z,86.30
2017-11-12T10:02:34.468Z,86.30
2017-11-12T10:05:01.492Z,86.30
2017-11-12T10:07:27.761Z,86.20
2017-11-12T10:09:54.831Z,86.80
2017-11-12T10:12:21.056Z,86.70
2017-11-12T10:14:47.307Z,85.90
2017-11-12T10:17:13.516Z,85.20
2017-11-12T10:19:40.598Z,85.30
2017-11-12T10:22:06.871Z,84.80
2017-11-12T10:24:33.890Z,83.50
2017-11-12T10:27:00.144Z,83.50
2017-11-12T10:29:27.153Z,83.80
2017-11-12T10:31:53.393Z,83.80
2017-11-12T10:34:19.600Z,83.10
2017-11-12T10:36:45.936Z,82.70
2017-11-12T10:39:12.216Z,81.90
2017-11-12T10:41:38.528Z,81.40
2017-11-12T10:44:06.525Z,78.70
2017-11-12T10:46:33.522Z,78.10
2017-11-12T10:48:59.736Z,78.20
2017-11-12T10:51:26.047Z,79.10
2017-11-12T10:53:52.261Z,80.00
2017-11-12T10:56:18.542Z,80.20
2017-11-12T10:58:44.744Z,80.00
2017-11-12T11:01:11.087Z,79.70
2017-11-12T11:03:37.423Z,80.20
2017-11-12T11:06:03.713Z,81.00
2017-11-12T11:08:30.001Z,81.50
2017-11-12T11:10:57.153Z,82.60
2017-11-12T11:13:24.677Z,82.60
2017-11-12T11:15:52.644Z,82.40
2017-11-12T11:18:18.874Z,82.40
2017-11-12T11:20:45.122Z,82.20
2017-11-12T11:23:11.532Z,81.90
2017-11-12T11:25:37.801Z,81.70
2017-11-12T11:28:04.861Z,81.70
2017-11-12T11:30:31.895Z,81.50
2017-11-12T11:32:58.832Z,81.50
2017-11-12T11:35:25.272Z,81.70
2017-11-12T11:37:51.647Z,81.90
2017-11-12T11:40:17.915Z,82.30
2017-11-12T11:42:44.224Z,82.50
2017-11-12T11:45:10.504Z,81.90
2017-11-12T11:47:37.954Z,81.80
2017-11-12T11:50:05.087Z,82.30
2017-11-12T11:52:31.330Z,82.20
2017-11-12T11:54:58.303Z,81.80
2017-11-12T11:57:24.655Z,81.80
2017-11-12T11:59:51.051Z,81.70
2017-11-12T12:02:17.368Z,81.50
2017-11-12T12:04:44.350Z,81.50
2017-11-12T12:07:10.953Z,81.60
2017-11-12T12:09:37.989Z,82.10
2017-11-12T12:12:04.247Z,82.10
2017-11-12T12:14:30.463Z,82.30
2017-11-12T12:16:57.816Z,82.10
2017-11-12T12:19:24.284Z,82.10
2017-11-12T12:21:50.547Z,81.90
2017-11-12T12:24:16.918Z,82.70
2017-11-12T12:26:44.876Z,83.20
2017-11-12T12:29:13.150Z,81.50
2017-11-12T12:31:40.323Z,81.50
2017-11-12T12:34:07.189Z,81.80
2017-11-12T12:36:34.536Z,81.00
2017-11-12T12:39:01.744Z,81.00
2017-11-12T12:41:29.004Z,81.10
2017-11-12T12:43:56.607Z,82.10
2017-11-12T12:46:23.857Z,82.60
2017-11-12T12:48:50.254Z,81.50
2017-11-12T12:51:17.016Z,81.20
2017-11-12T12:53:44.569Z,81.30
2017-11-12T12:56:10.946Z,81.30
2017-11-12T12:58:37.997Z,81.10
2017-11-12T13:01:04.607Z,81.10
2017-11-12T13:03:31.501Z,81.70
2017-11-12T13:05:58.354Z,80.60
2017-11-12T13:08:24.720Z,81.10
2017-11-12T13:10:52.837Z,81.70
2017-11-12T13:13:25.435Z,81.40
2017-11-12T13:15:51.749Z,81.30
2017-11-12T13:18:18.926Z,81.50
2017-11-12T13:20:49.515Z,81.40
2017-11-12T13:23:18.669Z,81.30
2017-11-12T13:25:45.244Z,81.30
2017-11-12T13:28:12.391Z,80.90
2017-11-12T13:30:43.274Z,81.50
2017-11-12T13:33:11.432Z,81.50
2017-11-12T13:35:37.761Z,81.60
2017-11-12T13:38:04.118Z,80.80
2017-11-12T13:40:30.355Z,80.60
2017-11-12T13:42:57.901Z,80.70
2017-11-12T13:45:24.215Z,81.70
2017-11-12T13:47:50.518Z,80.50
2017-11-12T13:50:17.485Z,81.50
2017-11-12T13:52:44.328Z,81.40
2017-11-12T13:55:11.010Z,81.90
2017-11-12T13:57:37.269Z,81.70
2017-11-12T14:00:03.549Z,81.70
2017-11-12T14:02:29.871Z,82.40
2017-11-12T14:04:56.100Z,82.40
2017-11-12T14:07:22.303Z,82.50
2017-11-12T14:09:48.600Z,81.70
2017-11-12T14:12:14.833Z,82.20
2017-11-12T14:14:41.844Z,82.60
2017-11-12T14:17:08.071Z,82.60
2017-11-12T14:19:34.764Z,82.80
2017-11-12T14:22:01.543Z,82.80
2017-11-12T14:24:28.598Z,83.50
2017-11-12T14:26:54.805Z,83.50
2017-11-12T14:29:21.078Z,83.50
2017-11-12T14:31:49.053Z,83.60
2017-11-12T14:34:16.061Z,83.20
2017-11-12T14:36:42.301Z,83.20
2017-11-12T14:39:08.547Z,83.10
2017-11-12T14:41:34.759Z,82.90
2017-11-12T14:44:01.004Z,83.50
2017-11-12T14:46:27.228Z,83.60
2017-11-12T14:48:53.531Z,83.50
2017-11-12T14:51:19.874Z,83.50
2017-11-12T14:53:46.127Z,83.80
2017-11-12T14:56:12.388Z,84.30
2017-11-12T14:58:38.639Z,84.40
2017-11-12T15:01:04.852Z,84.50
2017-11-12T15:03:31.141Z,84.40
2017-11-12T15:05:57.433Z,84.40
2017-11-12T15:08:23.791Z,84.10
2017-11-12T15:10:50.977Z,84.50
2017-11-12T15:13:17.316Z,84.50
2017-11-12T15:15:43.579Z,84.50
2017-11-12T15:18:09.941Z,84.60
2017-11-12T15:20:37.056Z,84.90
2017-11-12T15:23:03.806Z,84.80
2017-11-12T15:25:31.234Z,85.10
2017-11-12T15:27:57.516Z,85.00
2017-11-12T15:30:24.628Z,85.10
2017-11-12T15:32:51.171Z,85.10
2017-11-12T15:35:17.604Z,85.30
2017-11-12T15:37:43.884Z,84.80
2017-11-12T15:40:10.198Z,85.20
2017-11-12T15:42:37.169Z,85.60
2017-11-12T15:45:03.403Z,85.50
2017-11-12T15:47:29.646Z,85.80
2017-11-12T15:49:56.001Z,85.70
2017-11-12T15:52:22.434Z,86.10
2017-11-12T15:54:48.756Z,86.10
2017-11-12T15:57:14.967Z,86.40
2017-11-12T15:59:41.262Z,86.00
2017-11-12T16:02:08.299Z,86.00
2017-11-12T16:04:35.310Z,86.10
2017-11-12T16:07:01.598Z,86.00
2017-11-12T16:09:27.943Z,86.30
2017-11-12T16:11:55.049Z,86.50
2017-11-12T16:14:21.410Z,86.50
2017-11-12T16:16:47.661Z,86.50
2017-11-12T16:19:13.895Z,86.30
2017-11-12T16:21:40.144Z,86.50
2017-11-12T16:24:06.352Z,86.60
2017-11-12T16:26:32.732Z,86.80
2017-11-12T16:28:59.750Z,87.00
2017-11-12T16:31:26.054Z,87.00
2017-11-12T16:33:52.415Z,87.10
2017-11-12T16:36:18.665Z,87.10
2017-11-12T16:38:45.639Z,87.00
2017-11-12T16:41:11.879Z,87.00
2017-11-12T16:43:38.926Z,87.20
2017-11-12T16:46:05.189Z,87.10
2017-11-12T16:48:31.607Z,87.20
2017-11-12T16:50:58.192Z,86.80
2017-11-12T16:53:25.260Z,87.20
2017-11-12T16:55:51.487Z,87.20
2017-11-12T16:58:17.717Z,87.10
2017-11-12T17:00:44.008Z,87.10
2017-11-12T17:03:10.955Z,87.20
2017-11-12T17:05:38.004Z,87.30
2017-11-12T17:08:05.029Z,87.60
2017-11-12T17:10:31.385Z,87.10
2017-11-12T17:12:58.513Z,86.60
2017-11-12T17:15:25.607Z,86.90
2017-11-12T17:17:51.879Z,86.90
2017-11-12T17:20:18.115Z,86.80
2017-11-12T17:22:44.697Z,86.50
2017-11-12T17:25:10.957Z,86.40
2017-11-12T17:27:37.263Z,86.40
2017-11-12T17:30:03.508Z,86.00
2017-11-12T17:32:29.765Z,87.40
2017-11-12T17:34:56.338Z,86.60
2017-11-12T17:37:22.788Z,86.10
2017-11-12T17:39:49.205Z,86.10
2017-11-12T17:42:15.597Z,86.20
2017-11-12T17:44:41.863Z,86.00
2017-11-12T17:47:08.120Z,86.30
2017-11-12T17:49:34.636Z,86.50
2017-11-12T17:52:01.017Z,86.60
2017-11-12T17:54:27.230Z,86.20
2017-11-12T17:56:57.267Z,86.40
2017-11-12T17:59:23.613Z,86.60
2017-11-12T18:01:52.032Z,87.00
2017-11-12T18:04:18.364Z,86.80
2017-11-12T18:06:46.223Z,87.10
2017-11-12T18:09:12.650Z,87.10
2017-11-12T18:11:38.993Z,87.20
2017-11-12T18:14:05.356Z,87.00
2017-11-12T18:16:31.798Z,86.90
2017-11-12T18:18:58.077Z,87.40
2017-11-12T18:21:24.375Z,87.10
2017-11-12T18:23:50.789Z,86.90
2017-11-12T18:26:17.061Z,86.40
2017-11-12T18:28:43.342Z,86.70
2017-11-12T18:31:09.639Z,86.90
2017-11-12T18:33:35.924Z,87.00
2017-11-12T18:36:04.237Z,87.30
2017-11-12T18:38:31.557Z,87.50
2017-11-12T18:40:58.539Z,88.00
2017-11-12T18:43:24.990Z,88.00
2017-11-12T18:45:51.227Z,88.10
2017-11-12T18:48:17.557Z,88.30
2017-11-12T18:50:47.077Z,88.20
2017-11-12T18:53:13.460Z,88.00
2017-11-12T18:55:40.011Z,87.90
2017-11-12T18:58:06.829Z,88.10
2017-11-12T19:00:39.425Z,88.20
2017-11-12T19:06:09.908Z,88.50
2017-11-12T19:08:38.009Z,88.90
2017-11-12T19:11:06.733Z,88.90
2017-11-12T19:13:33.035Z,88.90
2017-11-12T19:15:59.504Z,88.80
2017-11-12T19:18:28.050Z,89.00
2017-11-12T19:20:57.624Z,89.30
2017-11-12T19:23:25.538Z,89.40
2017-11-12T19:25:53.858Z,89.40
2017-11-12T19:28:21.000Z,89.40
2017-11-12T19:30:48.051Z,89.90
2017-11-12T19:33:14.312Z,89.80
2017-11-12T19:35:40.559Z,90.00
2017-11-12T19:38:06.806Z,90.20
2017-11-12T19:40:33.119Z,90.10
2017-11-12T19:42:59.349Z,90.20
2017-11-12T19:45:25.640Z,90.20
2017-11-12T19:47:52.638Z,90.30
2017-11-12T19:50:18.845Z,90.20
2017-11-12T19:52:45.244Z,90.20
2017-11-12T19:55:12.305Z,90.40
2017-11-12T19:57:39.312Z,90.40
2017-11-12T20:00:05.696Z,90.40
2017-11-12T20:02:32.229Z,90.30
2017-11-12T20:04:58.550Z,90.40
2017-11-12T20:07:25.507Z,90.40
2017-11-12T20:09:51.822Z,90.40
2017-11-12T20:12:18.991Z,90.30
2017-11-12T20:14:45.265Z,90.20
2017-11-12T20:17:11.488Z,90.10
2017-11-12T20:19:37.725Z,90.20
2017-11-12T20:22:04.050Z,90.20
2017-11-12T20:24:30.311Z,90.30
2017-11-12T20:26:57.420Z,90.40
2017-11-12T20:29:23.735Z,90.30
2017-11-12T20:31:50.225Z,90.40
2017-11-12T20:34:16.509Z,90.50
2017-11-12T20:36:47.803Z,90.60
2017-11-12T20:39:14.344Z,90.50
2017-11-12T20:41:40.609Z,90.50
2017-11-12T20:44:06.855Z,90.60
2017-11-12T20:46:33.149Z,90.60
2017-11-12T20:48:59.436Z,90.50
2017-11-12T20:51:27.181Z,90.10
2017-11-12T20:53:53.445Z,90.20
2017-11-12T20:56:20.411Z,90.10
2017-11-12T20:58:46.726Z,90.10
2017-11-12T21:01:13.043Z,90.10
2017-11-12T21:03:41.482Z,90.20
2017-11-12T21:06:07.808Z,90.30
2017-11-12T21:08:34.111Z,90.30
2017-11-12T21:11:00.398Z,90.30
2017-11-12T21:13:26.704Z,90.30
2017-11-12T21:15:52.996Z,90.30
2017-11-12T21:18:19.264Z,90.40
2017-11-12T21:20:48.444Z,90.60
2017-11-12T21:23:14.715Z,90.60
2017-11-12T21:25:41.960Z,90.40
2017-11-12T21:28:11.220Z,90.40
2017-11-12T21:30:39.175Z,90.50
2017-11-12T21:33:11.541Z,90.40
2017-11-12T21:35:38.857Z,90.60
2017-11-12T21:38:05.653Z,90.90
2017-11-12T21:40:32.224Z,91.10
2017-11-12T21:42:59.571Z,91.10
2017-11-12T21:45:26.947Z,91.10
2017-11-12T21:47:57.193Z,91.30
2017-11-12T21:50:24.271Z,91.30
2017-11-12T21:52:51.205Z,91.30
2017-11-12T21:55:21.255Z,91.50
2017-11-12T21:57:50.381Z,91.50
2017-11-12T22:00:18.721Z,91.50
2017-11-12T22:02:45.157Z,91.60
2017-11-12T22:05:12.445Z,91.50
2017-11-12T22:07:38.811Z,91.50
2017-11-12T22:10:05.065Z,91.60
2017-11-12T22:12:31.332Z,91.40
2017-11-12T22:14:57.584Z,91.50
2017-11-12T22:17:23.903Z,91.60
2017-11-12T22:19:50.188Z,91.60
2017-11-12T22:22:16.467Z,91.50
2017-11-12T22:24:42.829Z,91.60
2017-11-12T22:27:09.091Z,91.60
2017-11-12T22:29:39.214Z,91.90
2017-11-12T22:32:05.572Z,91.70
2017-11-12T22:34:31.844Z,91.90
2017-11-12T22:36:59.199Z,91.70
2017-11-12T22:39:25.453Z,91.80
2017-11-12T22:41:51.880Z,91.80
2017-11-12T22:44:36.670Z,91.70
2017-11-12T22:47:04.842Z,91.50
2017-11-12T22:49:31.299Z,91.70
2017-11-12T22:54:47.330Z,91.70
2017-11-12T22:57:13.573Z,91.70
2017-11-12T22:59:39.952Z,91.70
2017-11-12T23:02:06.207Z,92.00
2017-11-12T23:04:35.180Z,92.10
2017-11-12T23:07:01.905Z,92.10
2017-11-12T23:09:28.801Z,92.10
2017-11-12T23:11:55.284Z,92.10
2017-11-12T23:14:21.697Z,92.00
2017-11-12T23:16:47.967Z,92.00
2017-11-12T23:19:14.208Z,91.90
2017-11-12T23:21:40.474Z,91.90
2017-11-12T23:24:07.150Z,92.00
2017-11-12T23:26:33.537Z,92.00
2017-11-12T23:29:01.244Z,92.10
2017-11-12T23:31:27.621Z,92.10
2017-11-12T23:33:53.870Z,92.10
2017-11-12T23:36:20.836Z,92.20
2017-11-12T23:38:47.042Z,92.20
2017-11-12T23:41:13.293Z,92.30
2017-11-12T23:43:39.632Z,92.30
2017-11-12T23:46:06.708Z,92.20
2017-11-12T23:48:33.015Z,92.20
2017-11-12T23:50:59.336Z,92.30
2017-11-12T23:53:25.553Z,92.30
2017-11-12T23:55:51.834Z,92.20
2017-11-12T23:58:18.032Z,92.20
